Daytona Beach International Airport
KDAB : now visible

Airfield :











YOU CAN JOIN US ON...

 
LOGIN :

Register | Disclaimer

   EN    FR    IT 

 









Legend :    VFR   Marginal VFR   IFR   Intensive IFR   Very Intensive IFR
Visi :
Ceiling :
>= 8 km
>= 3000ft
5 to 8 km
1000 to 3000 ft
1500m to 5 km
500 to 1000 ft
800 to 1500m
200 to 500 ft
< 800m
< 200 ft
Symbols :   Thunderstorms  Fog  Heavy snow  Heavy precipitations  Wind > 20 kt






- Airport Elevation : 34 ft
- IATA code : DAB


KDAB - Daytona Beach International

CURRENT METAR :
  • 071953Z 08006KT 10SM FEW030CB SCT250 31/26 A3006 RMK AO2 LTG DSNT NW SLP179 CB SW-NW MOV E T03110261

EXPIRED METARs :
  • 071853Z 06007KT 10SM SCT039 SCT250 32/26 A3008 RMK AO2 SLP184 T03170261
  • 071753Z 04008KT 10SM SCT039 SCT055 SCT250 32/26 A3009 RMK AO2 SLP189 T03170261 10328 20239 58004

TAF KDAB
Valid from the 07 at 20:00 until the 08 at 18:00 UTC


072018Z 0720/0818 08007KT P6SM SCT035 SCT250
FM072100 09007KT P6SM VCTS SCT040CB SCT090 BKN250
FM080130 20003KT P6SM SCT250
FM081500 06005KT P6SM SCT030 SCT250
KZJX FIR / North America



MET'MAP, your aeronautical weather chart ! - Copyright ORBIFLY December 2007 - Disclaimer

ORBIFLY MET'MAP TEAM :

Programming & Development : Alexandra Zaïnal
Concept & original design : Baudouin d'Aumeries
Assistance for programming : Marc-Olivier Méhu
Technical & hardware support : Manuel Goepfert

Contact : metmap@orbifly.com




SOURCES & CREDITS :

   NOAA       Earth
Advisory